createdAt,value
2023-02-11T00:02:09.035Z,14.43
2023-02-11T00:04:35.968Z,15.90
2023-02-11T00:07:02.788Z,14.60
2023-02-11T00:09:31.806Z,13.97
2023-02-11T00:11:58.833Z,13.60
2023-02-11T00:14:25.507Z,14.37
2023-02-11T00:16:52.221Z,15.10
2023-02-11T00:19:19.155Z,15.37
2023-02-11T00:21:45.790Z,14.33
2023-02-11T00:24:12.441Z,14.77
2023-02-11T00:26:39.328Z,15.17
2023-02-11T00:29:06.443Z,14.80
2023-02-11T00:31:33.487Z,15.00
2023-02-11T00:34:00.566Z,15.87
2023-02-11T00:36:28.774Z,15.80
2023-02-11T00:38:56.939Z,16.30
2023-02-11T00:41:24.706Z,15.33
2023-02-11T00:43:52.547Z,15.53
2023-02-11T00:46:19.538Z,16.10
2023-02-11T00:48:46.331Z,16.07
2023-02-11T00:51:13.099Z,16.83
2023-02-11T00:53:40.128Z,17.17
2023-02-11T00:56:07.848Z,17.00
2023-02-11T00:58:34.954Z,16.87
2023-02-11T01:01:02.014Z,16.13
2023-02-11T01:03:29.091Z,16.50
2023-02-11T01:05:56.053Z,16.73
2023-02-11T01:08:22.869Z,16.37
2023-02-11T01:11:01.740Z,16.33
2023-02-11T01:13:30.183Z,16.67
2023-02-11T01:15:57.518Z,16.63
2023-02-11T01:18:24.515Z,16.30
2023-02-11T01:20:53.133Z,17.90
2023-02-11T01:23:20.213Z,16.10
2023-02-11T01:25:47.738Z,18.23
2023-02-11T01:28:25.095Z,16.67
2023-02-11T01:30:52.663Z,16.97
2023-02-11T01:33:19.832Z,17.53
2023-02-11T01:35:46.957Z,17.13
2023-02-11T01:38:20.008Z,17.23
2023-02-11T01:40:49.226Z,16.47
2023-02-11T01:43:16.234Z,16.60
2023-02-11T01:46:05.449Z,16.33
2023-02-11T01:48:40.881Z,15.53
2023-02-11T01:51:16.541Z,15.17
2023-02-11T01:54:03.419Z,15.70
2023-02-11T01:56:49.944Z,15.20
2023-02-11T01:59:22.686Z,17.07
2023-02-11T02:01:56.682Z,17.47
2023-02-11T02:04:27.614Z,16.83
2023-02-11T02:07:02.675Z,16.00
2023-02-11T02:09:36.669Z,16.90
2023-02-11T02:12:03.553Z,16.70
2023-02-11T02:14:30.462Z,15.57
2023-02-11T02:16:57.101Z,16.87
2023-02-11T02:20:06.112Z,17.17
2023-02-11T02:22:53.916Z,16.57
2023-02-11T02:25:47.634Z,14.90
2023-02-11T02:28:20.868Z,15.53
2023-02-11T02:30:57.202Z,14.07
2023-02-11T02:33:38.807Z,14.33
2023-02-11T02:36:37.061Z,15.00
2023-02-11T02:39:10.955Z,14.33
2023-02-11T02:41:39.243Z,13.23
2023-02-11T02:44:08.151Z,14.20
2023-02-11T02:46:36.480Z,14.17
2023-02-11T02:49:03.734Z,13.97
2023-02-11T02:51:50.873Z,14.17
2023-02-11T02:54:23.388Z,14.30
2023-02-11T02:57:16.244Z,14.20
2023-02-11T02:59:57.956Z,13.17
2023-02-11T03:02:42.523Z,14.33
2023-02-11T03:05:15.241Z,14.40
2023-02-11T03:07:57.834Z,15.27
2023-02-11T03:10:32.825Z,13.90
2023-02-11T03:13:01.137Z,15.23
2023-02-11T03:15:32.398Z,16.70
2023-02-11T03:18:01.898Z,14.77
2023-02-11T03:20:33.425Z,14.83
2023-02-11T03:23:44.852Z,14.50
2023-02-11T03:26:24.637Z,14.30
2023-02-11T03:29:14.512Z,15.30
2023-02-11T03:31:55.937Z,16.27
2023-02-11T03:34:57.510Z,15.67
2023-02-11T03:37:27.514Z,16.03
2023-02-11T03:39:59.892Z,16.53
2023-02-11T03:42:30.923Z,16.57
2023-02-11T03:45:04.033Z,16.10
2023-02-11T03:47:35.502Z,17.37
2023-02-11T03:50:05.807Z,18.30
2023-02-11T03:52:33.822Z,16.50
2023-02-11T03:55:05.199Z,16.70
2023-02-11T03:57:34.244Z,17.30
2023-02-11T04:00:01.594Z,15.50
2023-02-11T04:02:32.971Z,16.63
2023-02-11T04:05:00.230Z,17.63
2023-02-11T04:07:28.102Z,16.03
2023-02-11T04:09:54.773Z,16.53
2023-02-11T04:12:21.800Z,17.07
2023-02-11T04:14:48.710Z,15.40
2023-02-11T04:17:15.616Z,17.00
2023-02-11T04:19:42.262Z,15.37
2023-02-11T04:22:09.247Z,16.27
2023-02-11T04:24:36.097Z,16.83
2023-02-11T04:27:02.822Z,17.00
2023-02-11T04:29:29.560Z,16.07
2023-02-11T04:31:56.640Z,16.83
2023-02-11T04:34:24.470Z,15.83
2023-02-11T04:36:51.191Z,16.17
2023-02-11T04:39:17.890Z,18.23
2023-02-11T04:41:44.531Z,17.40
2023-02-11T04:44:11.200Z,17.47
2023-02-11T04:46:38.105Z,16.60
2023-02-11T04:49:04.778Z,17.57
2023-02-11T04:51:31.952Z,17.97
2023-02-11T04:53:58.604Z,17.07
2023-02-11T04:56:25.259Z,16.90
2023-02-11T04:58:52.163Z,16.77
2023-02-11T05:01:18.855Z,17.60
2023-02-11T05:03:46.343Z,17.43
2023-02-11T05:06:13.320Z,17.23
2023-02-11T05:08:40.119Z,17.67
2023-02-11T05:11:08.422Z,17.40
2023-02-11T05:13:35.112Z,17.50
2023-02-11T05:16:01.770Z,17.30
2023-02-11T05:18:28.652Z,18.10
2023-02-11T05:20:55.289Z,19.27
2023-02-11T05:23:21.966Z,19.27
2023-02-11T05:25:49.234Z,18.70
2023-02-11T05:28:16.239Z,18.23
2023-02-11T05:30:42.909Z,17.80
2023-02-11T05:33:09.908Z,17.90
2023-02-11T05:35:36.557Z,18.70
2023-02-11T05:38:05.469Z,18.77
2023-02-11T05:40:32.392Z,19.27
2023-02-11T05:42:59.295Z,19.97
2023-02-11T05:45:25.937Z,18.57
2023-02-11T05:47:52.610Z,18.90
2023-02-11T05:50:19.822Z,20.43
2023-02-11T05:52:46.791Z,20.97
2023-02-11T05:55:13.828Z,19.27
2023-02-11T05:57:40.740Z,19.77
2023-02-11T06:00:08.590Z,21.13
2023-02-11T06:02:35.387Z,19.90
2023-02-11T06:05:02.192Z,21.57
2023-02-11T06:07:28.816Z,20.30
2023-02-11T06:09:55.540Z,21.67
2023-02-11T06:12:22.228Z,21.10
2023-02-11T06:14:48.934Z,21.67
2023-02-11T06:17:15.911Z,21.90
2023-02-11T06:19:42.796Z,21.03
2023-02-11T06:22:09.502Z,20.13
2023-02-11T06:25:00.029Z,21.47
2023-02-11T06:27:24.188Z,19.83
2023-02-11T06:29:52.671Z,19.37
2023-02-11T06:32:39.550Z,20.83
2023-02-11T06:35:08.911Z,19.30
2023-02-11T06:37:36.935Z,18.83
2023-02-11T06:40:03.948Z,20.30
2023-02-11T06:42:30.593Z,19.77
2023-02-11T06:45:13.265Z,20.37
2023-02-11T06:47:40.903Z,19.30
2023-02-11T06:50:11.180Z,18.77
2023-02-11T06:52:37.841Z,19.27
2023-02-11T06:55:05.425Z,20.67
2023-02-11T06:57:32.486Z,18.17
2023-02-11T06:59:59.425Z,18.93
2023-02-11T07:02:26.443Z,16.77
2023-02-11T07:04:53.131Z,17.70
2023-02-11T07:07:19.761Z,17.97
2023-02-11T07:09:46.646Z,17.30
2023-02-11T07:12:13.341Z,16.33
2023-02-11T07:14:40.609Z,17.00
2023-02-11T07:17:07.256Z,15.97
2023-02-11T07:19:34.313Z,17.03
2023-02-11T07:22:00.970Z,16.70
2023-02-11T07:24:27.694Z,17.87
2023-02-11T07:26:54.906Z,16.03
2023-02-11T07:29:21.600Z,17.20
2023-02-11T07:31:48.435Z,16.23
2023-02-11T07:34:15.443Z,16.50
2023-02-11T07:36:43.780Z,16.77
2023-02-11T07:39:10.528Z,18.10
2023-02-11T07:41:38.277Z,18.27
2023-02-11T07:44:05.174Z,18.73
2023-02-11T07:46:32.956Z,19.17
2023-02-11T07:48:59.983Z,17.30
2023-02-11T07:51:28.778Z,18.80
2023-02-11T07:53:58.228Z,17.53
2023-02-11T07:56:24.985Z,19.10
2023-02-11T07:58:51.693Z,19.50
2023-02-11T08:01:22.768Z,20.47
2023-02-11T08:03:49.489Z,21.83
2023-02-11T08:06:18.626Z,18.93
2023-02-11T08:08:45.319Z,18.97
2023-02-11T08:11:21.612Z,18.20
2023-02-11T08:13:48.801Z,18.50
2023-02-11T08:16:21.397Z,19.30
2023-02-11T08:18:49.242Z,19.20
2023-02-11T08:21:16.152Z,18.40
2023-02-11T08:23:44.249Z,17.43
2023-02-11T08:26:15.468Z,17.17
2023-02-11T08:28:44.261Z,18.70
2023-02-11T08:31:14.531Z,18.67
2023-02-11T08:33:41.949Z,17.93
2023-02-11T08:36:14.351Z,20.30
2023-02-11T08:38:41.585Z,19.57
2023-02-11T08:41:08.479Z,20.87
2023-02-11T08:43:36.168Z,19.47
2023-02-11T08:46:03.584Z,20.07
2023-02-11T08:48:30.729Z,18.80
2023-02-11T08:50:57.643Z,20.00
2023-02-11T08:53:25.280Z,18.87
2023-02-11T08:55:53.958Z,17.90
2023-02-11T08:58:22.475Z,16.70
2023-02-11T09:00:50.174Z,17.87
2023-02-11T09:03:17.659Z,18.30
2023-02-11T09:05:46.845Z,16.33
2023-02-11T09:08:14.425Z,17.97
2023-02-11T09:10:50.737Z,18.63
2023-02-11T09:13:17.958Z,17.13
2023-02-11T09:15:47.607Z,17.07
2023-02-11T09:18:14.613Z,20.93
2023-02-11T09:20:41.717Z,17.70
2023-02-11T09:23:09.806Z,16.87
2023-02-11T09:25:40.097Z,17.30
2023-02-11T09:28:07.574Z,18.20
2023-02-11T09:30:36.233Z,17.63
2023-02-11T09:33:03.639Z,17.07
2023-02-11T09:35:30.573Z,18.03
2023-02-11T09:37:57.472Z,16.30
2023-02-11T09:40:24.160Z,18.03
2023-02-11T09:43:04.108Z,17.20
2023-02-11T09:45:32.189Z,18.07
2023-02-11T09:48:05.831Z,17.37
2023-02-11T09:50:36.520Z,17.47
2023-02-11T09:53:24.745Z,17.97
2023-02-11T09:55:57.519Z,16.50
2023-02-11T09:58:33.614Z,16.83
2023-02-11T10:01:38.173Z,16.83
2023-02-11T10:04:34.303Z,17.80
2023-02-11T10:07:26.753Z,17.70
2023-02-11T10:10:33.174Z,17.30
2023-02-11T10:13:19.323Z,17.77
2023-02-11T10:16:12.300Z,17.60
2023-02-11T10:19:08.654Z,18.20
2023-02-11T10:21:57.128Z,17.90
2023-02-11T10:24:24.188Z,17.17
2023-02-11T10:26:52.344Z,17.40
2023-02-11T10:29:31.301Z,17.73
2023-02-11T10:32:00.596Z,16.77
2023-02-11T10:34:27.409Z,18.33
2023-02-11T10:36:54.323Z,17.43
2023-02-11T10:39:23.412Z,18.00
2023-02-11T10:42:08.559Z,16.17
2023-02-11T10:44:52.139Z,19.43
2023-02-11T10:47:25.449Z,20.60
2023-02-11T10:49:52.152Z,17.70
2023-02-11T10:52:25.725Z,18.43
2023-02-11T10:55:13.694Z,19.60
2023-02-11T10:57:57.696Z,19.73
2023-02-11T11:00:39.142Z,17.90
2023-02-11T11:03:22.658Z,18.87
2023-02-11T11:06:01.467Z,18.10
2023-02-11T11:08:50.711Z,18.40
2023-02-11T11:11:25.758Z,17.97
2023-02-11T11:13:52.367Z,19.03
2023-02-11T11:16:36.285Z,18.77
2023-02-11T11:19:09.324Z,18.23
2023-02-11T11:21:53.624Z,17.10
2023-02-11T11:24:27.662Z,18.30
2023-02-11T11:26:57.392Z,17.40
2023-02-11T11:33:30.993Z,18.73
2023-02-11T11:36:05.164Z,18.93
2023-02-11T11:38:33.324Z,18.30
2023-02-11T11:41:25.304Z,19.40
2023-02-11T11:44:17.221Z,18.53
2023-02-11T11:46:46.959Z,18.33
2023-02-11T11:49:30.924Z,19.73
2023-02-11T11:52:22.454Z,19.97
2023-02-11T11:55:16.107Z,17.70
2023-02-11T11:57:44.183Z,19.27
2023-02-11T12:00:20.836Z,17.80
2023-02-11T12:03:20.242Z,18.43
2023-02-11T12:05:59.295Z,18.27
2023-02-11T12:09:00.119Z,18.60
2023-02-11T12:11:48.925Z,19.60
2023-02-11T12:14:43.363Z,18.80
2023-02-11T12:17:24.564Z,18.63
2023-02-11T12:20:18.046Z,19.67
2023-02-11T12:23:04.722Z,20.70
2023-02-11T12:25:44.944Z,17.83
2023-02-11T12:28:23.753Z,18.20
2023-02-11T12:31:30.612Z,18.63
2023-02-11T12:34:38.316Z,18.90
2023-02-11T12:37:31.999Z,18.83
2023-02-11T12:40:15.747Z,19.17
2023-02-11T12:43:09.523Z,19.33
2023-02-11T12:46:14.327Z,18.47
2023-02-11T12:48:59.459Z,18.93
2023-02-11T12:52:08.843Z,18.27
2023-02-11T12:55:09.378Z,25.17
2023-02-11T12:57:38.293Z,26.60
2023-02-11T13:00:22.284Z,21.87
2023-02-11T13:03:07.212Z,20.00
2023-02-11T13:05:43.447Z,20.47
2023-02-11T13:08:31.219Z,19.47
2023-02-11T13:11:06.022Z,21.10
2023-02-11T13:14:25.039Z,20.00
2023-02-11T13:16:52.931Z,19.23
2023-02-11T13:19:26.605Z,31.63
2023-02-11T13:22:02.767Z,25.03
2023-02-11T13:24:41.665Z,44.10
2023-02-11T13:27:31.435Z,27.57
2023-02-11T13:30:13.913Z,17.73
2023-02-11T13:32:58.471Z,26.17
2023-02-11T13:35:30.370Z,20.53
2023-02-11T13:38:02.438Z,21.00
2023-02-11T13:40:36.770Z,25.77
2023-02-11T13:43:20.136Z,20.30
2023-02-11T13:45:48.810Z,21.30
2023-02-11T13:48:31.893Z,20.00
2023-02-11T13:51:08.714Z,20.20
2023-02-11T13:53:51.689Z,20.27
2023-02-11T13:56:39.627Z,19.43
2023-02-11T13:59:30.648Z,20.63
2023-02-11T14:02:19.195Z,20.03
2023-02-11T14:05:20.926Z,24.97
2023-02-11T14:08:27.987Z,19.10
2023-02-11T14:11:22.748Z,21.00
2023-02-11T14:13:49.609Z,22.40
2023-02-11T14:16:37.062Z,28.37
2023-02-11T14:19:06.517Z,20.03
2023-02-11T14:21:37.665Z,19.40
2023-02-11T14:24:14.675Z,20.17
2023-02-11T14:26:50.469Z,20.17
2023-02-11T14:29:33.373Z,20.20
2023-02-11T14:32:38.135Z,18.40
2023-02-11T14:35:18.507Z,19.53
2023-02-11T14:38:28.044Z,20.23
2023-02-11T14:41:17.217Z,19.70
2023-02-11T14:43:47.946Z,18.23
2023-02-11T14:46:20.022Z,18.63
2023-02-11T14:48:49.280Z,21.23
2023-02-11T14:51:25.896Z,21.97
2023-02-11T14:53:59.225Z,20.30
2023-02-11T14:56:31.033Z,20.77
2023-02-11T14:58:58.778Z,22.27
2023-02-11T15:01:40.711Z,19.40
2023-02-11T15:04:24.278Z,20.77
2023-02-11T15:06:51.369Z,19.17
2023-02-11T15:09:24.182Z,20.83
2023-02-11T15:11:51.830Z,21.30
2023-02-11T15:14:26.024Z,22.00
2023-02-11T15:16:56.238Z,21.57
2023-02-11T15:19:41.418Z,22.53
2023-02-11T15:22:23.539Z,25.57
2023-02-11T15:25:08.424Z,23.70
2023-02-11T15:27:47.451Z,21.20
2023-02-11T15:30:23.392Z,21.27
2023-02-11T15:32:51.749Z,21.40
2023-02-11T15:35:18.936Z,21.87
2023-02-11T15:37:46.436Z,23.37
2023-02-11T15:40:23.896Z,20.70
2023-02-11T15:42:58.348Z,24.17
2023-02-11T15:45:51.629Z,20.30
2023-02-11T15:48:34.430Z,23.67
2023-02-11T15:51:17.588Z,20.10
2023-02-11T15:53:52.957Z,19.60
2023-02-11T15:56:25.422Z,20.30
2023-02-11T15:58:55.370Z,21.27
2023-02-11T16:01:34.368Z,21.63
2023-02-11T16:04:02.437Z,30.47
2023-02-11T16:06:43.600Z,54.07
2023-02-11T16:09:10.998Z,22.40
2023-02-11T16:11:55.323Z,27.90
2023-02-11T16:14:27.790Z,21.20
2023-02-11T16:16:57.956Z,24.03
2023-02-11T16:19:26.418Z,32.80
2023-02-11T16:21:55.130Z,22.20
2023-02-11T16:24:33.763Z,22.80
2023-02-11T16:27:03.217Z,20.67
2023-02-11T16:29:33.142Z,22.63
2023-02-11T16:32:38.518Z,20.23
2023-02-11T16:35:11.212Z,21.47
2023-02-11T16:37:38.320Z,21.73
2023-02-11T16:40:05.768Z,20.70
2023-02-11T16:42:32.424Z,21.27
2023-02-11T16:45:00.050Z,21.17
2023-02-11T16:47:28.407Z,20.33
2023-02-11T16:49:56.595Z,18.63
2023-02-11T16:52:23.817Z,20.27
2023-02-11T16:54:51.357Z,19.40
2023-02-11T16:57:20.841Z,18.53
2023-02-11T16:59:47.991Z,20.10
2023-02-11T17:02:31.103Z,18.47
2023-02-11T17:05:04.004Z,19.37
2023-02-11T17:07:31.113Z,19.87
2023-02-11T17:09:58.262Z,19.83
2023-02-11T17:12:25.470Z,19.10
2023-02-11T17:14:53.100Z,18.90
2023-02-11T17:17:20.092Z,18.27
2023-02-11T17:19:47.833Z,18.17
2023-02-11T17:22:14.775Z,19.30
2023-02-11T17:24:41.396Z,20.93
2023-02-11T17:27:09.541Z,23.33
2023-02-11T17:29:37.005Z,21.43
2023-02-11T17:32:03.814Z,23.13
2023-02-11T17:34:32.510Z,19.97
2023-02-11T17:37:00.169Z,19.37
2023-02-11T17:39:27.915Z,20.33
2023-02-11T17:41:54.577Z,17.33
2023-02-11T17:44:21.511Z,17.50
2023-02-11T17:46:48.557Z,17.77
2023-02-11T17:49:16.334Z,17.43
2023-02-11T17:51:43.032Z,19.00
2023-02-11T17:54:16.001Z,17.27
2023-02-11T17:56:43.268Z,17.47
2023-02-11T17:59:11.468Z,18.43
2023-02-11T18:01:39.575Z,18.40
2023-02-11T18:04:07.962Z,19.27
2023-02-11T18:06:35.056Z,18.20
2023-02-11T18:09:04.188Z,19.23
2023-02-11T18:11:33.691Z,18.93
2023-02-11T18:14:01.843Z,17.97
2023-02-11T18:16:30.159Z,18.67
2023-02-11T18:18:59.863Z,19.70
2023-02-11T18:21:26.688Z,19.80
2023-02-11T18:23:53.990Z,21.80
2023-02-11T18:26:21.910Z,87.97
2023-02-11T18:28:48.961Z,72.33
2023-02-11T18:31:17.364Z,38.60
2023-02-11T18:33:44.279Z,21.50
2023-02-11T18:36:15.601Z,21.03
2023-02-11T18:38:45.994Z,18.47
2023-02-11T18:41:13.727Z,19.63
2023-02-11T18:43:40.693Z,36.40
2023-02-11T18:46:10.788Z,23.53
2023-02-11T18:48:38.629Z,18.10
2023-02-11T18:51:10.276Z,18.27
2023-02-11T18:53:37.277Z,23.57
2023-02-11T18:56:16.334Z,25.47
2023-02-11T18:58:43.109Z,20.13
2023-02-11T19:01:24.400Z,20.63
2023-02-11T19:03:51.468Z,20.80
2023-02-11T19:06:21.219Z,21.33
2023-02-11T19:08:48.004Z,20.07
2023-02-11T19:11:17.290Z,18.77
2023-02-11T19:13:44.358Z,20.97
2023-02-11T19:16:12.494Z,17.27
2023-02-11T19:18:39.848Z,17.70
2023-02-11T19:21:11.570Z,16.67
2023-02-11T19:23:38.937Z,17.37
2023-02-11T19:26:06.472Z,18.60
2023-02-11T19:28:35.479Z,16.50
2023-02-11T19:31:07.177Z,18.73
2023-02-11T19:33:34.026Z,17.97
2023-02-11T19:36:05.747Z,23.43
2023-02-11T19:38:32.718Z,20.60
2023-02-11T19:40:59.525Z,16.40
2023-02-11T19:43:26.559Z,18.07
2023-02-11T19:46:02.322Z,16.27
2023-02-11T19:48:29.185Z,17.07
2023-02-11T19:50:56.273Z,20.93
2023-02-11T19:53:23.399Z,18.53
2023-02-11T19:55:51.077Z,23.47
2023-02-11T19:58:18.021Z,18.93
2023-02-11T20:00:44.784Z,18.53
2023-02-11T20:03:11.468Z,19.13
2023-02-11T20:05:40.217Z,17.10
2023-02-11T20:08:06.876Z,17.07
2023-02-11T20:10:34.903Z,15.17
2023-02-11T20:13:01.542Z,17.07
2023-02-11T20:15:28.485Z,19.87
2023-02-11T20:17:55.145Z,18.37
2023-02-11T20:20:21.853Z,16.60
2023-02-11T20:22:49.129Z,14.97
2023-02-11T20:25:15.840Z,15.13
2023-02-11T20:27:47.930Z,15.30
2023-02-11T20:30:15.029Z,14.00
2023-02-11T20:32:41.726Z,15.80
2023-02-11T20:35:09.394Z,15.73
2023-02-11T20:37:36.076Z,16.17
2023-02-11T20:40:02.849Z,16.30
2023-02-11T20:42:30.029Z,16.67
2023-02-11T20:44:56.906Z,15.87
2023-02-11T20:47:23.536Z,15.43
2023-02-11T20:49:50.336Z,14.70
2023-02-11T20:52:17.123Z,15.63
2023-02-11T20:54:43.762Z,15.10
2023-02-11T20:57:10.788Z,16.37
2023-02-11T20:59:38.890Z,15.13
2023-02-11T21:02:05.670Z,17.33
2023-02-11T21:04:32.807Z,13.57
2023-02-11T21:07:01.827Z,14.10
2023-02-11T21:09:31.088Z,14.30
2023-02-11T21:11:58.511Z,14.00
2023-02-11T21:14:25.982Z,13.17
2023-02-11T21:16:52.743Z,13.93
2023-02-11T21:19:20.320Z,13.43
2023-02-11T21:21:47.344Z,13.77
2023-02-11T21:24:14.353Z,13.17
2023-02-11T21:26:41.329Z,13.70
2023-02-11T21:29:08.664Z,13.47
2023-02-11T21:31:36.818Z,12.53
2023-02-11T21:34:04.135Z,13.83
2023-02-11T21:36:30.879Z,13.60
2023-02-11T21:38:58.547Z,13.13
2023-02-11T21:41:26.908Z,12.33
2023-02-11T21:43:53.627Z,13.17
2023-02-11T21:46:21.584Z,12.67
2023-02-11T21:48:49.135Z,13.67
2023-02-11T21:51:21.486Z,12.70
2023-02-11T21:53:52.467Z,12.70
2023-02-11T21:56:19.332Z,12.77
2023-02-11T21:58:46.698Z,13.47
2023-02-11T22:01:16.567Z,12.00
2023-02-11T22:03:44.079Z,11.93
2023-02-11T22:06:13.247Z,12.00
2023-02-11T22:08:40.541Z,12.10
2023-02-11T22:11:10.008Z,12.03
2023-02-11T22:13:37.153Z,11.93
2023-02-11T22:16:07.528Z,12.70
2023-02-11T22:18:34.687Z,11.87
2023-02-11T22:21:11.502Z,10.90
2023-02-11T22:23:39.165Z,11.33
2023-02-11T22:26:16.210Z,12.53
2023-02-11T22:28:43.530Z,11.97
2023-02-11T22:31:13.408Z,11.60
2023-02-11T22:33:40.891Z,10.63
2023-02-11T22:36:13.028Z,11.60
2023-02-11T22:38:39.667Z,11.43
2023-02-11T22:41:09.779Z,11.70
2023-02-11T22:43:36.886Z,11.40
2023-02-11T22:46:05.972Z,10.67
2023-02-11T22:48:34.438Z,9.83
2023-02-11T22:51:09.679Z,10.47
2023-02-11T22:53:36.635Z,11.20
2023-02-11T22:56:09.299Z,11.03
2023-02-11T22:58:36.744Z,10.53
2023-02-11T23:01:04.427Z,10.30
2023-02-11T23:03:31.726Z,9.87
2023-02-11T23:05:59.252Z,10.63
2023-02-11T23:08:26.785Z,11.13
2023-02-11T23:10:53.864Z,10.13
2023-02-11T23:13:20.676Z,10.80
2023-02-11T23:15:48.076Z,9.00
2023-02-11T23:18:14.841Z,10.17
2023-02-11T23:20:43.845Z,9.43
2023-02-11T23:23:10.811Z,10.83
2023-02-11T23:25:43.500Z,10.37
2023-02-11T23:28:11.828Z,10.77
2023-02-11T23:30:38.574Z,10.77
2023-02-11T23:33:05.353Z,10.20
2023-02-11T23:35:32.584Z,10.20
2023-02-11T23:37:59.237Z,9.77
2023-02-11T23:40:26.102Z,9.80
2023-02-11T23:42:52.764Z,10.30
2023-02-11T23:45:19.454Z,9.90
2023-02-11T23:47:47.794Z,10.80
2023-02-11T23:50:14.459Z,9.93
2023-02-11T23:52:41.602Z,10.20
2023-02-11T23:55:08.371Z,9.93
2023-02-11T23:57:35.468Z,10.50
